Terminal Aerodrome Forecast
Issued by NWS Hastings, NE

Home | Current Version | Previous Version | Text Only | Print | Product List | Glossary On
Versions: 1 2 3 4 5 6 7 8 9 10 11 12 13 14 15 16 17 18 19 20 21 22 23 24 25 26 27
000
FTUS43 KGID 241743 CCA
TAFGRI
TAF COR
KGRI 241743Z 2418/2518 01012KT P6SM BKN015 BKN040
     FM242200 36011KT P6SM OVC020
     FM250200 01009KT P6SM BKN050
     FM251000 02007KT P6SM OVC007=

USA.gov is the U.S. government's official web portal to all federal, state and local government web resources and services.